sensor_id;sensor_type;location;lat;lon;timestamp;temperature;humidity
7958;DHT22;4024;52.172;5.378;2023-04-07T00:01:03;11.40;99.90
7958;DHT22;4024;52.172;5.378;2023-04-07T00:03:28;11.40;99.90
7958;DHT22;4024;52.172;5.378;2023-04-07T00:05:54;11.40;99.90
7958;DHT22;4024;52.172;5.378;2023-04-07T00:08:19;11.40;99.90
7958;DHT22;4024;52.172;5.378;2023-04-07T00:10:45;11.40;99.90
7958;DHT22;4024;52.172;5.378;2023-04-07T00:13:11;11.40;99.90
7958;DHT22;4024;52.172;5.378;2023-04-07T00:15:37;11.50;99.90
7958;DHT22;4024;52.172;5.378;2023-04-07T00:18:02;11.40;99.90
7958;DHT22;4024;52.172;5.378;2023-04-07T00:20:28;11.40;99.90
7958;DHT22;4024;52.172;5.378;2023-04-07T00:22:54;11.40;99.90
7958;DHT22;4024;52.172;5.378;2023-04-07T00:25:19;11.40;99.90
7958;DHT22;4024;52.172;5.378;2023-04-07T00:27:45;11.40;99.90
7958;DHT22;4024;52.172;5.378;2023-04-07T00:30:11;11.40;99.90
7958;DHT22;4024;52.172;5.378;2023-04-07T00:32:37;11.40;99.90
7958;DHT22;4024;52.172;5.378;2023-04-07T00:35:02;11.40;99.90
7958;DHT22;4024;52.172;5.378;2023-04-07T00:37:28;11.40;99.90
7958;DHT22;4024;52.172;5.378;2023-04-07T00:39:53;11.40;99.90
7958;DHT22;4024;52.172;5.378;2023-04-07T00:42:20;11.40;99.90
7958;DHT22;4024;52.172;5.378;2023-04-07T00:44:46;11.40;99.90
7958;DHT22;4024;52.172;5.378;2023-04-07T00:47:11;11.40;99.90
7958;DHT22;4024;52.172;5.378;2023-04-07T00:49:37;11.40;99.90
7958;DHT22;4024;52.172;5.378;2023-04-07T00:52:04;11.40;99.90
7958;DHT22;4024;52.172;5.378;2023-04-07T00:54:31;11.40;99.90
7958;DHT22;4024;52.172;5.378;2023-04-07T00:56:57;11.30;99.90
7958;DHT22;4024;52.172;5.378;2023-04-07T00:59:23;11.30;99.90
7958;DHT22;4024;52.172;5.378;2023-04-07T01:02:07;11.30;99.90
7958;DHT22;4024;52.172;5.378;2023-04-07T01:05:02;11.30;99.90
7958;DHT22;4024;52.172;5.378;2023-04-07T01:10:11;11.30;99.90
7958;DHT22;4024;52.172;5.378;2023-04-07T01:12:46;11.30;99.90
7958;DHT22;4024;52.172;5.378;2023-04-07T01:15:20;11.30;99.90
7958;DHT22;4024;52.172;5.378;2023-04-07T01:17:56;11.30;99.90
7958;DHT22;4024;52.172;5.378;2023-04-07T01:20:26;11.30;99.90
7958;DHT22;4024;52.172;5.378;2023-04-07T01:22:58;11.30;99.90
7958;DHT22;4024;52.172;5.378;2023-04-07T01:31:07;11.30;99.90
7958;DHT22;4024;52.172;5.378;2023-04-07T01:33:34;11.30;99.90
7958;DHT22;4024;52.172;5.378;2023-04-07T01:36:02;11.30;99.90
7958;DHT22;4024;52.172;5.378;2023-04-07T01:38:29;11.30;99.90
7958;DHT22;4024;52.172;5.378;2023-04-07T01:40:57;11.30;99.90
7958;DHT22;4024;52.172;5.378;2023-04-07T01:43:24;11.30;99.90
7958;DHT22;4024;52.172;5.378;2023-04-07T01:45:51;11.30;99.90
7958;DHT22;4024;52.172;5.378;2023-04-07T01:48:18;11.30;99.90
7958;DHT22;4024;52.172;5.378;2023-04-07T01:50:45;11.20;99.90
7958;DHT22;4024;52.172;5.378;2023-04-07T01:53:11;11.20;99.90
7958;DHT22;4024;52.172;5.378;2023-04-07T01:55:37;11.30;99.90
7958;DHT22;4024;52.172;5.378;2023-04-07T01:58:06;11.30;99.90
7958;DHT22;4024;52.172;5.378;2023-04-07T02:00:32;11.30;99.90
7958;DHT22;4024;52.172;5.378;2023-04-07T02:03:10;11.30;99.90
7958;DHT22;4024;52.172;5.378;2023-04-07T02:05:46;11.30;99.90
7958;DHT22;4024;52.172;5.378;2023-04-07T02:08:15;11.20;99.90
7958;DHT22;4024;52.172;5.378;2023-04-07T02:10:42;11.30;99.90
7958;DHT22;4024;52.172;5.378;2023-04-07T02:13:14;11.30;99.90
7958;DHT22;4024;52.172;5.378;2023-04-07T02:15:41;11.30;99.90
7958;DHT22;4024;52.172;5.378;2023-04-07T02:18:09;11.30;99.90
7958;DHT22;4024;52.172;5.378;2023-04-07T02:20:39;11.30;99.90
7958;DHT22;4024;52.172;5.378;2023-04-07T02:23:07;11.30;99.90
7958;DHT22;4024;52.172;5.378;2023-04-07T02:25:34;11.30;99.90
7958;DHT22;4024;52.172;5.378;2023-04-07T02:28:02;11.30;99.90
7958;DHT22;4024;52.172;5.378;2023-04-07T02:30:29;11.30;99.90
7958;DHT22;4024;52.172;5.378;2023-04-07T02:32:55;11.30;99.90
7958;DHT22;4024;52.172;5.378;2023-04-07T02:35:22;11.30;99.90
7958;DHT22;4024;52.172;5.378;2023-04-07T02:37:48;11.30;99.90
7958;DHT22;4024;52.172;5.378;2023-04-07T02:40:16;11.30;99.90
7958;DHT22;4024;52.172;5.378;2023-04-07T02:42:42;11.30;99.90
7958;DHT22;4024;52.172;5.378;2023-04-07T02:45:09;11.30;99.90
7958;DHT22;4024;52.172;5.378;2023-04-07T02:47:36;11.30;99.90
7958;DHT22;4024;52.172;5.378;2023-04-07T02:50:02;11.30;99.90
7958;DHT22;4024;52.172;5.378;2023-04-07T02:52:28;11.30;99.90
7958;DHT22;4024;52.172;5.378;2023-04-07T02:54:54;11.30;99.90
7958;DHT22;4024;52.172;5.378;2023-04-07T02:57:20;11.30;99.90
7958;DHT22;4024;52.172;5.378;2023-04-07T02:59:46;11.30;99.90
7958;DHT22;4024;52.172;5.378;2023-04-07T03:02:12;11.30;99.90
7958;DHT22;4024;52.172;5.378;2023-04-07T03:04:38;11.30;99.90
7958;DHT22;4024;52.172;5.378;2023-04-07T03:07:03;11.30;99.90
7958;DHT22;4024;52.172;5.378;2023-04-07T03:09:29;11.30;99.90
7958;DHT22;4024;52.172;5.378;2023-04-07T03:11:55;11.20;99.90
7958;DHT22;4024;52.172;5.378;2023-04-07T03:14:21;11.20;99.90
7958;DHT22;4024;52.172;5.378;2023-04-07T03:16:46;11.30;99.90
7958;DHT22;4024;52.172;5.378;2023-04-07T03:19:12;11.30;99.90
7958;DHT22;4024;52.172;5.378;2023-04-07T03:21:37;11.30;99.90
7958;DHT22;4024;52.172;5.378;2023-04-07T03:24:05;11.20;99.90
7958;DHT22;4024;52.172;5.378;2023-04-07T03:26:31;11.30;99.90
7958;DHT22;4024;52.172;5.378;2023-04-07T03:28:56;11.30;99.90
7958;DHT22;4024;52.172;5.378;2023-04-07T03:31:22;11.30;99.90
7958;DHT22;4024;52.172;5.378;2023-04-07T03:33:48;11.20;99.90
7958;DHT22;4024;52.172;5.378;2023-04-07T03:36:14;11.30;99.90
7958;DHT22;4024;52.172;5.378;2023-04-07T03:38:40;11.20;99.90
7958;DHT22;4024;52.172;5.378;2023-04-07T03:41:05;11.30;99.90
7958;DHT22;4024;52.172;5.378;2023-04-07T03:43:31;11.30;99.90
7958;DHT22;4024;52.172;5.378;2023-04-07T03:45:57;11.30;99.90
7958;DHT22;4024;52.172;5.378;2023-04-07T03:48:22;11.30;99.90
7958;DHT22;4024;52.172;5.378;2023-04-07T03:50:48;11.30;99.90
7958;DHT22;4024;52.172;5.378;2023-04-07T03:53:13;11.30;99.90
7958;DHT22;4024;52.172;5.378;2023-04-07T03:55:41;11.30;99.90
7958;DHT22;4024;52.172;5.378;2023-04-07T03:58:07;11.30;99.90
7958;DHT22;4024;52.172;5.378;2023-04-07T04:00:33;11.30;99.90
7958;DHT22;4024;52.172;5.378;2023-04-07T04:03:06;11.30;99.90
7958;DHT22;4024;52.172;5.378;2023-04-07T04:05:32;11.30;99.90
7958;DHT22;4024;52.172;5.378;2023-04-07T04:07:57;11.30;99.90
7958;DHT22;4024;52.172;5.378;2023-04-07T04:10:23;11.30;99.90
7958;DHT22;4024;52.172;5.378;2023-04-07T04:12:49;11.30;99.90
7958;DHT22;4024;52.172;5.378;2023-04-07T04:15:15;11.30;99.90
7958;DHT22;4024;52.172;5.378;2023-04-07T04:17:44;11.30;99.90
7958;DHT22;4024;52.172;5.378;2023-04-07T04:20:10;11.30;99.90
7958;DHT22;4024;52.172;5.378;2023-04-07T04:22:38;11.30;99.90
7958;DHT22;4024;52.172;5.378;2023-04-07T04:25:03;11.30;99.90
7958;DHT22;4024;52.172;5.378;2023-04-07T04:27:29;11.30;99.90
7958;DHT22;4024;52.172;5.378;2023-04-07T04:29:55;11.30;99.90
7958;DHT22;4024;52.172;5.378;2023-04-07T04:32:20;11.30;99.90
7958;DHT22;4024;52.172;5.378;2023-04-07T04:34:46;11.30;99.90
7958;DHT22;4024;52.172;5.378;2023-04-07T04:37:12;11.30;99.90
7958;DHT22;4024;52.172;5.378;2023-04-07T04:39:37;11.40;99.90
7958;DHT22;4024;52.172;5.378;2023-04-07T04:42:04;11.30;99.90
7958;DHT22;4024;52.172;5.378;2023-04-07T04:44:29;11.30;99.90
7958;DHT22;4024;52.172;5.378;2023-04-07T04:46:55;11.20;99.90
7958;DHT22;4024;52.172;5.378;2023-04-07T04:49:21;11.20;99.90
7958;DHT22;4024;52.172;5.378;2023-04-07T04:51:47;11.20;99.90
7958;DHT22;4024;52.172;5.378;2023-04-07T04:54:12;11.20;99.90
7958;DHT22;4024;52.172;5.378;2023-04-07T04:56:38;11.20;99.90
7958;DHT22;4024;52.172;5.378;2023-04-07T04:59:04;11.20;99.90
7958;DHT22;4024;52.172;5.378;2023-04-07T05:01:30;11.20;99.90
7958;DHT22;4024;52.172;5.378;2023-04-07T05:03:56;11.20;99.90
7958;DHT22;4024;52.172;5.378;2023-04-07T05:06:22;11.20;99.90
7958;DHT22;4024;52.172;5.378;2023-04-07T05:08:47;11.20;99.90
7958;DHT22;4024;52.172;5.378;2023-04-07T05:11:15;11.20;99.90
7958;DHT22;4024;52.172;5.378;2023-04-07T05:13:40;11.20;99.90
7958;DHT22;4024;52.172;5.378;2023-04-07T05:16:06;11.20;99.90
7958;DHT22;4024;52.172;5.378;2023-04-07T05:18:32;11.20;99.90
7958;DHT22;4024;52.172;5.378;2023-04-07T05:20:57;11.20;99.90
7958;DHT22;4024;52.172;5.378;2023-04-07T05:23:23;11.20;99.90
7958;DHT22;4024;52.172;5.378;2023-04-07T05:25:49;11.20;99.90
7958;DHT22;4024;52.172;5.378;2023-04-07T05:28:14;11.20;99.90
7958;DHT22;4024;52.172;5.378;2023-04-07T05:30:40;11.20;99.90
7958;DHT22;4024;52.172;5.378;2023-04-07T05:33:06;11.20;99.90
7958;DHT22;4024;52.172;5.378;2023-04-07T05:35:31;11.20;99.90
7958;DHT22;4024;52.172;5.378;2023-04-07T05:37:57;11.20;99.90
7958;DHT22;4024;52.172;5.378;2023-04-07T05:40:22;11.20;99.90
7958;DHT22;4024;52.172;5.378;2023-04-07T05:42:48;11.20;99.90
7958;DHT22;4024;52.172;5.378;2023-04-07T05:45:14;11.20;99.90
7958;DHT22;4024;52.172;5.378;2023-04-07T05:47:40;11.20;99.90
7958;DHT22;4024;52.172;5.378;2023-04-07T05:50:06;11.20;99.90
7958;DHT22;4024;52.172;5.378;2023-04-07T05:52:32;11.20;99.90
7958;DHT22;4024;52.172;5.378;2023-04-07T05:54:58;11.20;99.90
7958;DHT22;4024;52.172;5.378;2023-04-07T05:57:23;11.20;99.90
7958;DHT22;4024;52.172;5.378;2023-04-07T05:59:49;11.20;99.90
7958;DHT22;4024;52.172;5.378;2023-04-07T06:02:14;11.20;99.90
7958;DHT22;4024;52.172;5.378;2023-04-07T06:04:40;11.20;99.90
7958;DHT22;4024;52.172;5.378;2023-04-07T06:07:06;11.20;99.90
7958;DHT22;4024;52.172;5.378;2023-04-07T06:09:31;11.20;99.90
7958;DHT22;4024;52.172;5.378;2023-04-07T06:11:57;11.20;99.90
7958;DHT22;4024;52.172;5.378;2023-04-07T06:14:23;11.20;99.90
7958;DHT22;4024;52.172;5.378;2023-04-07T06:16:48;11.20;99.90
7958;DHT22;4024;52.172;5.378;2023-04-07T06:19:14;11.20;99.90
7958;DHT22;4024;52.172;5.378;2023-04-07T06:21:40;11.20;99.90
7958;DHT22;4024;52.172;5.378;2023-04-07T06:24:06;11.30;99.90
7958;DHT22;4024;52.172;5.378;2023-04-07T06:26:31;11.30;99.90
7958;DHT22;4024;52.172;5.378;2023-04-07T06:28:58;11.30;99.90
7958;DHT22;4024;52.172;5.378;2023-04-07T06:31:24;11.30;99.90
7958;DHT22;4024;52.172;5.378;2023-04-07T06:33:50;11.30;99.90
7958;DHT22;4024;52.172;5.378;2023-04-07T06:36:16;11.30;99.90
7958;DHT22;4024;52.172;5.378;2023-04-07T06:38:42;11.30;99.90
7958;DHT22;4024;52.172;5.378;2023-04-07T06:41:07;11.30;99.90
7958;DHT22;4024;52.172;5.378;2023-04-07T06:43:36;11.30;99.90
7958;DHT22;4024;52.172;5.378;2023-04-07T06:46:02;11.30;99.90
7958;DHT22;4024;52.172;5.378;2023-04-07T06:48:27;11.50;99.90
7958;DHT22;4024;52.172;5.378;2023-04-07T06:50:53;11.40;99.90
7958;DHT22;4024;52.172;5.378;2023-04-07T06:53:18;11.50;99.90
7958;DHT22;4024;52.172;5.378;2023-04-07T06:55:44;11.50;99.90
7958;DHT22;4024;52.172;5.378;2023-04-07T06:58:10;11.60;99.90
7958;DHT22;4024;52.172;5.378;2023-04-07T07:00:35;11.50;99.90
7958;DHT22;4024;52.172;5.378;2023-04-07T07:03:01;11.50;99.90
7958;DHT22;4024;52.172;5.378;2023-04-07T07:05:26;11.50;99.90
7958;DHT22;4024;52.172;5.378;2023-04-07T07:07:53;11.50;99.90
7958;DHT22;4024;52.172;5.378;2023-04-07T07:10:18;11.60;99.90
7958;DHT22;4024;52.172;5.378;2023-04-07T07:12:48;11.70;99.90
7958;DHT22;4024;52.172;5.378;2023-04-07T07:15:13;11.60;99.90
7958;DHT22;4024;52.172;5.378;2023-04-07T07:17:39;11.60;99.90
7958;DHT22;4024;52.172;5.378;2023-04-07T07:20:06;11.60;99.90
7958;DHT22;4024;52.172;5.378;2023-04-07T07:22:31;11.60;99.90
7958;DHT22;4024;52.172;5.378;2023-04-07T07:24:57;11.70;99.90
7958;DHT22;4024;52.172;5.378;2023-04-07T07:27:23;11.70;99.90
7958;DHT22;4024;52.172;5.378;2023-04-07T07:29:48;11.70;99.90
7958;DHT22;4024;52.172;5.378;2023-04-07T07:32:14;11.70;99.90
7958;DHT22;4024;52.172;5.378;2023-04-07T07:34:40;11.70;99.90
7958;DHT22;4024;52.172;5.378;2023-04-07T07:37:05;11.70;99.90
7958;DHT22;4024;52.172;5.378;2023-04-07T07:39:31;11.80;99.90
7958;DHT22;4024;52.172;5.378;2023-04-07T07:41:56;11.80;99.90
7958;DHT22;4024;52.172;5.378;2023-04-07T07:44:22;11.80;99.90
7958;DHT22;4024;52.172;5.378;2023-04-07T07:46:48;11.80;99.90
7958;DHT22;4024;52.172;5.378;2023-04-07T07:49:14;11.80;99.90
7958;DHT22;4024;52.172;5.378;2023-04-07T07:51:40;11.90;99.90
7958;DHT22;4024;52.172;5.378;2023-04-07T07:54:06;11.90;99.90
7958;DHT22;4024;52.172;5.378;2023-04-07T07:56:32;11.90;99.90
7958;DHT22;4024;52.172;5.378;2023-04-07T07:58:57;11.90;99.90
7958;DHT22;4024;52.172;5.378;2023-04-07T08:01:23;12.00;99.90
7958;DHT22;4024;52.172;5.378;2023-04-07T08:03:49;12.00;99.90
7958;DHT22;4024;52.172;5.378;2023-04-07T08:06:14;11.90;99.90
7958;DHT22;4024;52.172;5.378;2023-04-07T08:08:40;12.00;99.90
7958;DHT22;4024;52.172;5.378;2023-04-07T08:11:06;12.00;99.90
7958;DHT22;4024;52.172;5.378;2023-04-07T08:13:32;12.00;99.90
7958;DHT22;4024;52.172;5.378;2023-04-07T08:15:57;12.00;99.90
7958;DHT22;4024;52.172;5.378;2023-04-07T08:18:23;12.00;99.90
7958;DHT22;4024;52.172;5.378;2023-04-07T08:20:49;12.00;99.90
7958;DHT22;4024;52.172;5.378;2023-04-07T08:23:16;12.00;99.90
7958;DHT22;4024;52.172;5.378;2023-04-07T08:25:41;12.00;99.90
7958;DHT22;4024;52.172;5.378;2023-04-07T08:28:07;12.00;99.90
7958;DHT22;4024;52.172;5.378;2023-04-07T08:30:32;12.10;99.90
7958;DHT22;4024;52.172;5.378;2023-04-07T08:32:58;12.00;99.90
7958;DHT22;4024;52.172;5.378;2023-04-07T08:35:24;12.10;99.90
7958;DHT22;4024;52.172;5.378;2023-04-07T08:37:49;12.10;99.90
7958;DHT22;4024;52.172;5.378;2023-04-07T08:40:16;12.20;99.90
7958;DHT22;4024;52.172;5.378;2023-04-07T08:42:45;12.20;99.90
7958;DHT22;4024;52.172;5.378;2023-04-07T08:45:13;12.30;99.90
7958;DHT22;4024;52.172;5.378;2023-04-07T08:47:40;12.30;99.90
7958;DHT22;4024;52.172;5.378;2023-04-07T08:50:10;12.30;99.90
7958;DHT22;4024;52.172;5.378;2023-04-07T08:52:49;12.40;99.90
7958;DHT22;4024;52.172;5.378;2023-04-07T08:55:15;12.30;99.90
7958;DHT22;4024;52.172;5.378;2023-04-07T08:57:42;12.40;99.90
7958;DHT22;4024;52.172;5.378;2023-04-07T09:00:08;12.40;99.90
7958;DHT22;4024;52.172;5.378;2023-04-07T09:02:37;12.40;99.90
7958;DHT22;4024;52.172;5.378;2023-04-07T09:05:04;12.50;99.90
7958;DHT22;4024;52.172;5.378;2023-04-07T09:07:32;12.50;99.90
7958;DHT22;4024;52.172;5.378;2023-04-07T09:09:58;12.50;99.90
7958;DHT22;4024;52.172;5.378;2023-04-07T09:12:24;12.50;99.90
7958;DHT22;4024;52.172;5.378;2023-04-07T09:14:52;12.50;99.90
7958;DHT22;4024;52.172;5.378;2023-04-07T09:17:18;12.60;99.90
7958;DHT22;4024;52.172;5.378;2023-04-07T09:19:43;12.60;99.90
7958;DHT22;4024;52.172;5.378;2023-04-07T09:22:09;12.50;99.90
7958;DHT22;4024;52.172;5.378;2023-04-07T09:24:39;12.60;99.90
7958;DHT22;4024;52.172;5.378;2023-04-07T09:27:12;12.60;99.90
7958;DHT22;4024;52.172;5.378;2023-04-07T09:29:39;12.60;99.90
7958;DHT22;4024;52.172;5.378;2023-04-07T09:32:04;12.60;99.90
7958;DHT22;4024;52.172;5.378;2023-04-07T09:34:38;12.60;99.90
7958;DHT22;4024;52.172;5.378;2023-04-07T09:37:05;12.60;99.90
7958;DHT22;4024;52.172;5.378;2023-04-07T09:39:47;12.60;99.90
7958;DHT22;4024;52.172;5.378;2023-04-07T09:42:13;12.70;99.90
7958;DHT22;4024;52.172;5.378;2023-04-07T09:44:39;12.60;99.90
7958;DHT22;4024;52.172;5.378;2023-04-07T09:47:06;12.70;99.90
7958;DHT22;4024;52.172;5.378;2023-04-07T09:49:31;12.70;99.90
7958;DHT22;4024;52.172;5.378;2023-04-07T09:51:59;12.80;99.90
7958;DHT22;4024;52.172;5.378;2023-04-07T09:54:37;12.80;99.90
7958;DHT22;4024;52.172;5.378;2023-04-07T09:57:04;12.80;99.90
7958;DHT22;4024;52.172;5.378;2023-04-07T09:59:31;12.80;99.90
7958;DHT22;4024;52.172;5.378;2023-04-07T10:01:57;12.80;99.90
7958;DHT22;4024;52.172;5.378;2023-04-07T10:04:24;12.80;99.90
7958;DHT22;4024;52.172;5.378;2023-04-07T10:06:51;12.80;99.90
7958;DHT22;4024;52.172;5.378;2023-04-07T10:09:19;12.80;99.90
7958;DHT22;4024;52.172;5.378;2023-04-07T10:11:44;12.70;99.90
7958;DHT22;4024;52.172;5.378;2023-04-07T10:14:11;12.70;99.90
7958;DHT22;4024;52.172;5.378;2023-04-07T10:16:37;12.70;99.90
7958;DHT22;4024;52.172;5.378;2023-04-07T10:19:04;12.70;99.90
7958;DHT22;4024;52.172;5.378;2023-04-07T10:21:38;12.70;99.90
7958;DHT22;4024;52.172;5.378;2023-04-07T10:24:15;12.70;99.90
7958;DHT22;4024;52.172;5.378;2023-04-07T10:26:52;12.70;99.90
7958;DHT22;4024;52.172;5.378;2023-04-07T10:29:20;12.70;99.90
7958;DHT22;4024;52.172;5.378;2023-04-07T10:31:47;12.80;99.90
7958;DHT22;4024;52.172;5.378;2023-04-07T10:34:13;12.90;99.90
7958;DHT22;4024;52.172;5.378;2023-04-07T10:37:07;12.80;99.90
7958;DHT22;4024;52.172;5.378;2023-04-07T10:39:33;12.80;99.90
7958;DHT22;4024;52.172;5.378;2023-04-07T10:42:00;12.80;99.90
7958;DHT22;4024;52.172;5.378;2023-04-07T10:47:07;12.90;99.90
7958;DHT22;4024;52.172;5.378;2023-04-07T10:49:33;12.90;99.90
7958;DHT22;4024;52.172;5.378;2023-04-07T10:52:21;12.90;99.90
7958;DHT22;4024;52.172;5.378;2023-04-07T10:54:47;12.90;99.90
7958;DHT22;4024;52.172;5.378;2023-04-07T10:57:33;12.90;99.90
7958;DHT22;4024;52.172;5.378;2023-04-07T11:02:39;12.90;99.90
7958;DHT22;4024;52.172;5.378;2023-04-07T11:05:05;12.90;99.90
7958;DHT22;4024;52.172;5.378;2023-04-07T11:07:45;12.90;99.90
7958;DHT22;4024;52.172;5.378;2023-04-07T11:10:12;12.80;99.90
7958;DHT22;4024;52.172;5.378;2023-04-07T11:12:40;12.90;99.90
7958;DHT22;4024;52.172;5.378;2023-04-07T11:15:21;12.90;99.90
7958;DHT22;4024;52.172;5.378;2023-04-07T11:18:15;12.90;99.90
7958;DHT22;4024;52.172;5.378;2023-04-07T11:20:49;13.00;99.90
7958;DHT22;4024;52.172;5.378;2023-04-07T11:23:16;13.00;99.90
7958;DHT22;4024;52.172;5.378;2023-04-07T11:25:43;13.00;99.90
7958;DHT22;4024;52.172;5.378;2023-04-07T11:28:10;13.00;99.90
7958;DHT22;4024;52.172;5.378;2023-04-07T11:30:45;13.00;99.90
7958;DHT22;4024;52.172;5.378;2023-04-07T11:33:15;13.00;99.90
7958;DHT22;4024;52.172;5.378;2023-04-07T11:35:49;13.10;99.90
7958;DHT22;4024;52.172;5.378;2023-04-07T11:38:17;13.10;99.90
7958;DHT22;4024;52.172;5.378;2023-04-07T11:40:42;13.00;99.90
7958;DHT22;4024;52.172;5.378;2023-04-07T11:43:25;13.00;99.90
7958;DHT22;4024;52.172;5.378;2023-04-07T11:46:08;13.00;99.90
7958;DHT22;4024;52.172;5.378;2023-04-07T11:48:34;13.00;99.90
7958;DHT22;4024;52.172;5.378;2023-04-07T11:51:01;13.10;99.90
7958;DHT22;4024;52.172;5.378;2023-04-07T11:53:32;13.10;99.90
7958;DHT22;4024;52.172;5.378;2023-04-07T11:56:15;13.10;99.90
7958;DHT22;4024;52.172;5.378;2023-04-07T11:58:52;13.10;99.90
7958;DHT22;4024;52.172;5.378;2023-04-07T12:01:19;13.10;99.90
7958;DHT22;4024;52.172;5.378;2023-04-07T12:03:59;13.20;99.90
7958;DHT22;4024;52.172;5.378;2023-04-07T12:06:35;13.20;99.90
7958;DHT22;4024;52.172;5.378;2023-04-07T12:09:07;13.20;99.90
7958;DHT22;4024;52.172;5.378;2023-04-07T12:11:34;13.20;99.90
7958;DHT22;4024;52.172;5.378;2023-04-07T12:14:01;13.30;99.90
7958;DHT22;4024;52.172;5.378;2023-04-07T12:16:29;13.30;99.90
7958;DHT22;4024;52.172;5.378;2023-04-07T12:18:55;13.40;99.90
7958;DHT22;4024;52.172;5.378;2023-04-07T12:21:21;13.40;99.90
7958;DHT22;4024;52.172;5.378;2023-04-07T12:23:48;13.40;99.90
7958;DHT22;4024;52.172;5.378;2023-04-07T12:26:13;13.50;99.90
7958;DHT22;4024;52.172;5.378;2023-04-07T12:28:39;13.50;99.90
7958;DHT22;4024;52.172;5.378;2023-04-07T12:31:04;13.50;99.90
7958;DHT22;4024;52.172;5.378;2023-04-07T12:33:30;13.50;99.90
7958;DHT22;4024;52.172;5.378;2023-04-07T12:35:57;13.50;99.90
7958;DHT22;4024;52.172;5.378;2023-04-07T12:38:23;13.50;99.90
7958;DHT22;4024;52.172;5.378;2023-04-07T12:40:48;13.60;99.90
7958;DHT22;4024;52.172;5.378;2023-04-07T12:43:14;13.50;99.90
7958;DHT22;4024;52.172;5.378;2023-04-07T12:45:40;13.60;99.90
7958;DHT22;4024;52.172;5.378;2023-04-07T12:48:06;13.50;99.90
7958;DHT22;4024;52.172;5.378;2023-04-07T12:50:32;13.60;99.90
7958;DHT22;4024;52.172;5.378;2023-04-07T12:52:57;13.60;99.90
7958;DHT22;4024;52.172;5.378;2023-04-07T12:55:24;13.60;99.90
7958;DHT22;4024;52.172;5.378;2023-04-07T12:57:49;13.60;99.90
7958;DHT22;4024;52.172;5.378;2023-04-07T13:00:15;13.60;99.90
7958;DHT22;4024;52.172;5.378;2023-04-07T13:02:41;13.60;99.90
7958;DHT22;4024;52.172;5.378;2023-04-07T13:05:08;13.50;99.90
7958;DHT22;4024;52.172;5.378;2023-04-07T13:07:34;13.50;99.90
7958;DHT22;4024;52.172;5.378;2023-04-07T13:10:01;13.50;99.90
7958;DHT22;4024;52.172;5.378;2023-04-07T13:12:27;13.40;99.90
7958;DHT22;4024;52.172;5.378;2023-04-07T13:14:52;13.40;99.90
7958;DHT22;4024;52.172;5.378;2023-04-07T13:17:18;13.40;99.90
7958;DHT22;4024;52.172;5.378;2023-04-07T13:19:43;13.30;99.90
7958;DHT22;4024;52.172;5.378;2023-04-07T13:22:11;13.30;99.90
7958;DHT22;4024;52.172;5.378;2023-04-07T13:24:37;13.30;99.90
7958;DHT22;4024;52.172;5.378;2023-04-07T13:27:02;13.30;99.90
7958;DHT22;4024;52.172;5.378;2023-04-07T13:29:29;13.30;99.90
7958;DHT22;4024;52.172;5.378;2023-04-07T13:32:07;13.20;99.90
7958;DHT22;4024;52.172;5.378;2023-04-07T13:34:33;13.20;99.90
7958;DHT22;4024;52.172;5.378;2023-04-07T13:37:03;13.40;99.90
7958;DHT22;4024;52.172;5.378;2023-04-07T13:39:29;13.10;99.90
7958;DHT22;4024;52.172;5.378;2023-04-07T13:41:56;13.20;99.90
7958;DHT22;4024;52.172;5.378;2023-04-07T13:44:23;13.10;99.90
7958;DHT22;4024;52.172;5.378;2023-04-07T13:46:48;13.20;99.90
7958;DHT22;4024;52.172;5.378;2023-04-07T13:49:14;13.30;99.90
7958;DHT22;4024;52.172;5.378;2023-04-07T13:51:40;13.20;99.90
7958;DHT22;4024;52.172;5.378;2023-04-07T13:54:05;13.20;99.90
7958;DHT22;4024;52.172;5.378;2023-04-07T13:56:32;13.20;99.90
7958;DHT22;4024;52.172;5.378;2023-04-07T13:59:00;13.30;99.90
7958;DHT22;4024;52.172;5.378;2023-04-07T14:01:26;13.20;99.90
7958;DHT22;4024;52.172;5.378;2023-04-07T14:03:52;13.30;99.90
7958;DHT22;4024;52.172;5.378;2023-04-07T14:06:17;13.40;99.90
7958;DHT22;4024;52.172;5.378;2023-04-07T14:08:47;13.40;99.90
7958;DHT22;4024;52.172;5.378;2023-04-07T14:11:16;13.60;99.90
7958;DHT22;4024;52.172;5.378;2023-04-07T14:13:43;13.60;99.90
7958;DHT22;4024;52.172;5.378;2023-04-07T14:16:11;13.60;99.90
7958;DHT22;4024;52.172;5.378;2023-04-07T14:18:37;13.70;99.90
7958;DHT22;4024;52.172;5.378;2023-04-07T14:21:05;13.70;99.90
7958;DHT22;4024;52.172;5.378;2023-04-07T14:23:31;13.70;99.90
7958;DHT22;4024;52.172;5.378;2023-04-07T14:26:00;13.70;99.90
7958;DHT22;4024;52.172;5.378;2023-04-07T14:28:26;13.80;99.90
7958;DHT22;4024;52.172;5.378;2023-04-07T14:30:52;13.80;99.90
7958;DHT22;4024;52.172;5.378;2023-04-07T14:33:19;13.70;99.90
7958;DHT22;4024;52.172;5.378;2023-04-07T14:35:44;13.60;99.90
7958;DHT22;4024;52.172;5.378;2023-04-07T14:38:16;13.60;99.90
7958;DHT22;4024;52.172;5.378;2023-04-07T14:40:44;13.60;99.90
7958;DHT22;4024;52.172;5.378;2023-04-07T14:43:10;13.50;99.90
7958;DHT22;4024;52.172;5.378;2023-04-07T14:45:37;13.50;99.90
7958;DHT22;4024;52.172;5.378;2023-04-07T14:48:03;13.40;99.90
7958;DHT22;4024;52.172;5.378;2023-04-07T14:50:31;13.40;99.90
7958;DHT22;4024;52.172;5.378;2023-04-07T14:52:59;13.30;99.90
7958;DHT22;4024;52.172;5.378;2023-04-07T14:55:27;13.30;99.90
7958;DHT22;4024;52.172;5.378;2023-04-07T14:57:55;13.30;99.90
7958;DHT22;4024;52.172;5.378;2023-04-07T15:00:21;13.30;99.90
7958;DHT22;4024;52.172;5.378;2023-04-07T15:02:52;13.30;99.90
7958;DHT22;4024;52.172;5.378;2023-04-07T15:05:18;13.30;99.90
7958;DHT22;4024;52.172;5.378;2023-04-07T15:07:47;13.30;99.90
7958;DHT22;4024;52.172;5.378;2023-04-07T15:10:15;13.20;99.90
7958;DHT22;4024;52.172;5.378;2023-04-07T15:12:44;13.20;99.90
7958;DHT22;4024;52.172;5.378;2023-04-07T15:15:13;13.10;99.90
7958;DHT22;4024;52.172;5.378;2023-04-07T15:17:39;13.10;99.90
7958;DHT22;4024;52.172;5.378;2023-04-07T15:20:05;13.20;99.90
7958;DHT22;4024;52.172;5.378;2023-04-07T15:22:31;13.10;99.90
7958;DHT22;4024;52.172;5.378;2023-04-07T15:24:57;13.10;99.90
7958;DHT22;4024;52.172;5.378;2023-04-07T15:27:22;13.10;99.90
7958;DHT22;4024;52.172;5.378;2023-04-07T15:29:48;13.10;99.90
7958;DHT22;4024;52.172;5.378;2023-04-07T15:32:13;13.10;99.90
7958;DHT22;4024;52.172;5.378;2023-04-07T15:34:39;13.00;99.90
7958;DHT22;4024;52.172;5.378;2023-04-07T15:37:05;13.10;99.90
7958;DHT22;4024;52.172;5.378;2023-04-07T15:39:30;13.00;99.90
7958;DHT22;4024;52.172;5.378;2023-04-07T15:41:56;13.00;99.90
7958;DHT22;4024;52.172;5.378;2023-04-07T15:44:22;13.00;99.90
7958;DHT22;4024;52.172;5.378;2023-04-07T15:46:47;13.00;99.90
7958;DHT22;4024;52.172;5.378;2023-04-07T15:49:13;13.00;99.90
7958;DHT22;4024;52.172;5.378;2023-04-07T15:51:44;13.00;99.90
7958;DHT22;4024;52.172;5.378;2023-04-07T15:54:10;13.00;99.90
7958;DHT22;4024;52.172;5.378;2023-04-07T15:56:36;13.00;99.90
7958;DHT22;4024;52.172;5.378;2023-04-07T15:59:02;13.00;99.90
7958;DHT22;4024;52.172;5.378;2023-04-07T16:01:27;13.00;99.90
7958;DHT22;4024;52.172;5.378;2023-04-07T16:03:54;13.00;99.90
7958;DHT22;4024;52.172;5.378;2023-04-07T16:06:19;13.00;99.90
7958;DHT22;4024;52.172;5.378;2023-04-07T16:08:45;13.00;99.90
7958;DHT22;4024;52.172;5.378;2023-04-07T16:11:10;12.90;99.90
7958;DHT22;4024;52.172;5.378;2023-04-07T16:13:36;12.90;99.90
7958;DHT22;4024;52.172;5.378;2023-04-07T16:16:02;12.90;99.90